sensor_id;sensor_type;location;lat;lon;timestamp;P1;durP1;ratioP1;P2;durP2;ratioP2
78716;SDS011;68045;50.042;14.432;2023-10-09T00:00:01;8.88;;;4.70;;
78716;SDS011;68045;50.042;14.432;2023-10-09T00:04:42;7.90;;;4.35;;
78716;SDS011;68045;50.042;14.432;2023-10-09T00:08:45;6.68;;;4.30;;
78716;SDS011;68045;50.042;14.432;2023-10-09T00:12:50;10.55;;;5.10;;
78716;SDS011;68045;50.042;14.432;2023-10-09T00:16:52;8.70;;;4.70;;
78716;SDS011;68045;50.042;14.432;2023-10-09T00:21:14;8.43;;;4.30;;
78716;SDS011;68045;50.042;14.432;2023-10-09T00:25:23;9.32;;;4.80;;
78716;SDS011;68045;50.042;14.432;2023-10-09T00:29:30;6.97;;;4.22;;
78716;SDS011;68045;50.042;14.432;2023-10-09T00:33:35;7.50;;;4.18;;
78716;SDS011;68045;50.042;14.432;2023-10-09T00:37:35;12.45;;;4.50;;
78716;SDS011;68045;50.042;14.432;2023-10-09T00:41:37;5.90;;;4.03;;
78716;SDS011;68045;50.042;14.432;2023-10-09T00:45:37;10.15;;;4.75;;
78716;SDS011;68045;50.042;14.432;2023-10-09T00:49:40;8.18;;;4.53;;
78716;SDS011;68045;50.042;14.432;2023-10-09T00:53:51;11.70;;;4.82;;
78716;SDS011;68045;50.042;14.432;2023-10-09T00:57:54;8.82;;;4.15;;
78716;SDS011;68045;50.042;14.432;2023-10-09T01:06:40;8.95;;;4.15;;
78716;SDS011;68045;50.042;14.432;2023-10-09T01:10:46;6.13;;;4.20;;
78716;SDS011;68045;50.042;14.432;2023-10-09T01:14:56;8.38;;;4.00;;
78716;SDS011;68045;50.042;14.432;2023-10-09T01:19:00;8.70;;;4.28;;
78716;SDS011;68045;50.042;14.432;2023-10-09T01:23:06;7.60;;;3.90;;
78716;SDS011;68045;50.042;14.432;2023-10-09T01:27:09;8.90;;;4.43;;
78716;SDS011;68045;50.042;14.432;2023-10-09T01:31:15;10.40;;;4.05;;
78716;SDS011;68045;50.042;14.432;2023-10-09T01:35:16;8.27;;;4.50;;
78716;SDS011;68045;50.042;14.432;2023-10-09T01:39:24;8.73;;;4.05;;
78716;SDS011;68045;50.042;14.432;2023-10-09T01:43:27;10.77;;;4.78;;
78716;SDS011;68045;50.042;14.432;2023-10-09T01:47:28;9.25;;;5.07;;
78716;SDS011;68045;50.042;14.432;2023-10-09T01:51:31;10.70;;;4.60;;
78716;SDS011;68045;50.042;14.432;2023-10-09T01:55:36;9.07;;;4.03;;
78716;SDS011;68045;50.042;14.432;2023-10-09T01:59:44;8.73;;;4.38;;
78716;SDS011;68045;50.042;14.432;2023-10-09T02:03:47;5.97;;;3.78;;
78716;SDS011;68045;50.042;14.432;2023-10-09T02:07:52;8.20;;;4.45;;
78716;SDS011;68045;50.042;14.432;2023-10-09T02:11:53;11.98;;;4.38;;
78716;SDS011;68045;50.042;14.432;2023-10-09T02:15:55;9.95;;;4.68;;
78716;SDS011;68045;50.042;14.432;2023-10-09T02:20:13;8.18;;;4.10;;
78716;SDS011;68045;50.042;14.432;2023-10-09T02:24:18;9.15;;;4.68;;
78716;SDS011;68045;50.042;14.432;2023-10-09T02:28:38;8.27;;;4.07;;
78716;SDS011;68045;50.042;14.432;2023-10-09T02:32:44;8.50;;;4.80;;
78716;SDS011;68045;50.042;14.432;2023-10-09T02:36:49;10.10;;;4.53;;
78716;SDS011;68045;50.042;14.432;2023-10-09T02:40:50;7.07;;;4.13;;
78716;SDS011;68045;50.042;14.432;2023-10-09T02:45:03;7.15;;;4.57;;
78716;SDS011;68045;50.042;14.432;2023-10-09T02:49:07;9.02;;;3.97;;
78716;SDS011;68045;50.042;14.432;2023-10-09T02:53:10;9.25;;;4.30;;
78716;SDS011;68045;50.042;14.432;2023-10-09T02:57:19;7.30;;;4.30;;
78716;SDS011;68045;50.042;14.432;2023-10-09T03:01:23;7.22;;;4.45;;
78716;SDS011;68045;50.042;14.432;2023-10-09T03:05:24;9.90;;;3.97;;
78716;SDS011;68045;50.042;14.432;2023-10-09T03:09:28;6.45;;;3.72;;
78716;SDS011;68045;50.042;14.432;2023-10-09T03:13:29;7.72;;;4.07;;
78716;SDS011;68045;50.042;14.432;2023-10-09T03:17:33;10.48;;;4.38;;
78716;SDS011;68045;50.042;14.432;2023-10-09T03:21:35;8.38;;;4.20;;
78716;SDS011;68045;50.042;14.432;2023-10-09T03:25:37;9.18;;;4.15;;
78716;SDS011;68045;50.042;14.432;2023-10-09T03:29:38;6.90;;;3.55;;
78716;SDS011;68045;50.042;14.432;2023-10-09T03:33:39;6.10;;;3.80;;
78716;SDS011;68045;50.042;14.432;2023-10-09T03:37:40;5.88;;;3.67;;
78716;SDS011;68045;50.042;14.432;2023-10-09T03:41:41;6.82;;;4.22;;
78716;SDS011;68045;50.042;14.432;2023-10-09T03:45:42;6.88;;;3.42;;
78716;SDS011;68045;50.042;14.432;2023-10-09T03:49:50;5.53;;;3.70;;
78716;SDS011;68045;50.042;14.432;2023-10-09T03:53:54;6.00;;;3.78;;
78716;SDS011;68045;50.042;14.432;2023-10-09T03:57:56;7.43;;;4.32;;
78716;SDS011;68045;50.042;14.432;2023-10-09T04:02:01;5.38;;;3.22;;
78716;SDS011;68045;50.042;14.432;2023-10-09T04:06:05;5.43;;;3.17;;
78716;SDS011;68045;50.042;14.432;2023-10-09T04:10:08;6.20;;;3.55;;
78716;SDS011;68045;50.042;14.432;2023-10-09T04:14:28;8.90;;;4.30;;
78716;SDS011;68045;50.042;14.432;2023-10-09T04:18:35;9.27;;;3.58;;
78716;SDS011;68045;50.042;14.432;2023-10-09T04:22:39;5.40;;;3.17;;
78716;SDS011;68045;50.042;14.432;2023-10-09T04:26:50;5.85;;;3.15;;
78716;SDS011;68045;50.042;14.432;2023-10-09T04:30:57;6.00;;;3.35;;
78716;SDS011;68045;50.042;14.432;2023-10-09T04:34:59;6.20;;;3.28;;
78716;SDS011;68045;50.042;14.432;2023-10-09T04:43:40;7.53;;;3.40;;
78716;SDS011;68045;50.042;14.432;2023-10-09T04:47:44;5.65;;;3.60;;
78716;SDS011;68045;50.042;14.432;2023-10-09T04:52:07;5.35;;;3.13;;
78716;SDS011;68045;50.042;14.432;2023-10-09T04:56:18;9.15;;;3.47;;
78716;SDS011;68045;50.042;14.432;2023-10-09T05:00:24;6.35;;;3.83;;
78716;SDS011;68045;50.042;14.432;2023-10-09T05:04:25;8.32;;;4.07;;
78716;SDS011;68045;50.042;14.432;2023-10-09T05:08:38;7.88;;;3.67;;
78716;SDS011;68045;50.042;14.432;2023-10-09T05:12:46;6.95;;;4.00;;
78716;SDS011;68045;50.042;14.432;2023-10-09T05:16:47;5.75;;;3.40;;
78716;SDS011;68045;50.042;14.432;2023-10-09T05:21:02;6.05;;;3.20;;
78716;SDS011;68045;50.042;14.432;2023-10-09T05:25:21;5.97;;;3.22;;
78716;SDS011;68045;50.042;14.432;2023-10-09T05:29:42;4.90;;;3.10;;
78716;SDS011;68045;50.042;14.432;2023-10-09T05:33:59;5.55;;;3.50;;
78716;SDS011;68045;50.042;14.432;2023-10-09T05:38:01;7.40;;;3.83;;
78716;SDS011;68045;50.042;14.432;2023-10-09T05:42:15;5.65;;;3.60;;
78716;SDS011;68045;50.042;14.432;2023-10-09T05:46:18;6.35;;;3.20;;
78716;SDS011;68045;50.042;14.432;2023-10-09T05:50:28;9.18;;;3.60;;
78716;SDS011;68045;50.042;14.432;2023-10-09T05:54:29;7.03;;;3.47;;
78716;SDS011;68045;50.042;14.432;2023-10-09T05:58:49;6.60;;;3.65;;
78716;SDS011;68045;50.042;14.432;2023-10-09T06:03:08;7.95;;;3.92;;
78716;SDS011;68045;50.042;14.432;2023-10-09T06:07:22;6.90;;;3.60;;
78716;SDS011;68045;50.042;14.432;2023-10-09T06:11:41;9.73;;;3.25;;
78716;SDS011;68045;50.042;14.432;2023-10-09T06:15:49;6.57;;;3.30;;
78716;SDS011;68045;50.042;14.432;2023-10-09T06:20:10;6.38;;;3.50;;
78716;SDS011;68045;50.042;14.432;2023-10-09T06:24:30;4.93;;;3.10;;
78716;SDS011;68045;50.042;14.432;2023-10-09T06:28:41;8.82;;;3.42;;
78716;SDS011;68045;50.042;14.432;2023-10-09T06:32:50;8.55;;;3.88;;
78716;SDS011;68045;50.042;14.432;2023-10-09T06:36:51;7.47;;;3.70;;
78716;SDS011;68045;50.042;14.432;2023-10-09T06:40:54;5.22;;;3.47;;
78716;SDS011;68045;50.042;14.432;2023-10-09T06:45:08;7.28;;;3.70;;
78716;SDS011;68045;50.042;14.432;2023-10-09T06:49:14;8.32;;;4.28;;
78716;SDS011;68045;50.042;14.432;2023-10-09T06:53:33;5.88;;;3.55;;
78716;SDS011;68045;50.042;14.432;2023-10-09T06:57:53;7.30;;;3.72;;
78716;SDS011;68045;50.042;14.432;2023-10-09T07:01:54;6.88;;;3.78;;
78716;SDS011;68045;50.042;14.432;2023-10-09T07:06:14;7.80;;;4.30;;
78716;SDS011;68045;50.042;14.432;2023-10-09T07:10:24;6.80;;;3.65;;
78716;SDS011;68045;50.042;14.432;2023-10-09T07:14:33;5.40;;;3.55;;
78716;SDS011;68045;50.042;14.432;2023-10-09T07:18:37;6.85;;;3.63;;
78716;SDS011;68045;50.042;14.432;2023-10-09T07:22:49;7.20;;;4.07;;
78716;SDS011;68045;50.042;14.432;2023-10-09T07:26:53;6.45;;;3.83;;
78716;SDS011;68045;50.042;14.432;2023-10-09T07:30:56;6.85;;;4.28;;
78716;SDS011;68045;50.042;14.432;2023-10-09T07:35:00;9.13;;;4.43;;
78716;SDS011;68045;50.042;14.432;2023-10-09T07:39:01;6.47;;;4.05;;
78716;SDS011;68045;50.042;14.432;2023-10-09T07:43:03;10.63;;;5.00;;
78716;SDS011;68045;50.042;14.432;2023-10-09T07:47:06;7.60;;;4.65;;
78716;SDS011;68045;50.042;14.432;2023-10-09T07:51:23;8.95;;;4.40;;
78716;SDS011;68045;50.042;14.432;2023-10-09T07:55:31;8.40;;;4.25;;
78716;SDS011;68045;50.042;14.432;2023-10-09T07:59:39;9.57;;;4.75;;
78716;SDS011;68045;50.042;14.432;2023-10-09T08:03:50;8.93;;;5.07;;
78716;SDS011;68045;50.042;14.432;2023-10-09T08:08:11;9.60;;;5.85;;
78716;SDS011;68045;50.042;14.432;2023-10-09T08:12:37;9.77;;;5.40;;
78716;SDS011;68045;50.042;14.432;2023-10-09T08:16:50;10.23;;;5.03;;
78716;SDS011;68045;50.042;14.432;2023-10-09T08:21:12;11.07;;;5.28;;
78716;SDS011;68045;50.042;14.432;2023-10-09T08:25:12;10.07;;;5.32;;
78716;SDS011;68045;50.042;14.432;2023-10-09T08:29:29;9.80;;;5.13;;
78716;SDS011;68045;50.042;14.432;2023-10-09T08:33:34;10.48;;;5.72;;
78716;SDS011;68045;50.042;14.432;2023-10-09T08:37:35;10.38;;;5.55;;
78716;SDS011;68045;50.042;14.432;2023-10-09T08:41:36;12.18;;;5.88;;
78716;SDS011;68045;50.042;14.432;2023-10-09T08:45:39;9.98;;;5.80;;
78716;SDS011;68045;50.042;14.432;2023-10-09T08:49:40;16.02;;;6.72;;
78716;SDS011;68045;50.042;14.432;2023-10-09T08:53:42;13.15;;;6.85;;
78716;SDS011;68045;50.042;14.432;2023-10-09T08:57:46;10.48;;;6.15;;
78716;SDS011;68045;50.042;14.432;2023-10-09T09:01:48;11.68;;;6.90;;
78716;SDS011;68045;50.042;14.432;2023-10-09T09:05:58;14.98;;;6.72;;
78716;SDS011;68045;50.042;14.432;2023-10-09T09:10:02;12.55;;;6.00;;
78716;SDS011;68045;50.042;14.432;2023-10-09T09:14:22;13.25;;;6.97;;
78716;SDS011;68045;50.042;14.432;2023-10-09T09:18:48;13.85;;;7.47;;
78716;SDS011;68045;50.042;14.432;2023-10-09T09:23:17;11.75;;;7.07;;
78716;SDS011;68045;50.042;14.432;2023-10-09T09:27:24;12.07;;;7.47;;
78716;SDS011;68045;50.042;14.432;2023-10-09T09:31:53;18.27;;;8.43;;
78716;SDS011;68045;50.042;14.432;2023-10-09T09:36:00;15.02;;;8.07;;
78716;SDS011;68045;50.042;14.432;2023-10-09T09:40:05;9.93;;;6.45;;
78716;SDS011;68045;50.042;14.432;2023-10-09T09:44:15;11.93;;;6.50;;
78716;SDS011;68045;50.042;14.432;2023-10-09T09:48:18;14.35;;;6.95;;
78716;SDS011;68045;50.042;14.432;2023-10-09T09:52:19;14.38;;;7.65;;
78716;SDS011;68045;50.042;14.432;2023-10-09T09:56:25;15.18;;;7.07;;
78716;SDS011;68045;50.042;14.432;2023-10-09T10:00:28;11.93;;;7.07;;
78716;SDS011;68045;50.042;14.432;2023-10-09T10:04:40;10.85;;;6.95;;
78716;SDS011;68045;50.042;14.432;2023-10-09T10:08:44;15.38;;;6.60;;
78716;SDS011;68045;50.042;14.432;2023-10-09T10:12:51;9.02;;;5.60;;
78716;SDS011;68045;50.042;14.432;2023-10-09T10:21:14;13.15;;;6.05;;
78716;SDS011;68045;50.042;14.432;2023-10-09T10:25:33;11.18;;;5.70;;
78716;SDS011;68045;50.042;14.432;2023-10-09T10:29:42;12.48;;;6.35;;
78716;SDS011;68045;50.042;14.432;2023-10-09T10:37:55;8.88;;;5.45;;
78716;SDS011;68045;50.042;14.432;2023-10-09T10:42:08;10.82;;;6.13;;
78716;SDS011;68045;50.042;14.432;2023-10-09T10:46:16;11.73;;;6.60;;
78716;SDS011;68045;50.042;14.432;2023-10-09T10:50:37;9.70;;;5.38;;
78716;SDS011;68045;50.042;14.432;2023-10-09T10:54:38;14.57;;;6.10;;
78716;SDS011;68045;50.042;14.432;2023-10-09T10:58:39;12.77;;;6.68;;
78716;SDS011;68045;50.042;14.432;2023-10-09T11:02:56;10.68;;;6.05;;
78716;SDS011;68045;50.042;14.432;2023-10-09T11:07:13;12.35;;;6.65;;
78716;SDS011;68045;50.042;14.432;2023-10-09T11:11:16;11.68;;;6.40;;
78716;SDS011;68045;50.042;14.432;2023-10-09T11:19:46;12.10;;;6.15;;
78716;SDS011;68045;50.042;14.432;2023-10-09T11:23:48;12.40;;;6.25;;
78716;SDS011;68045;50.042;14.432;2023-10-09T11:27:58;12.23;;;6.68;;
78716;SDS011;68045;50.042;14.432;2023-10-09T11:36:22;13.63;;;7.00;;
78716;SDS011;68045;50.042;14.432;2023-10-09T11:40:33;14.65;;;7.00;;
78716;SDS011;68045;50.042;14.432;2023-10-09T11:44:54;12.38;;;6.53;;
78716;SDS011;68045;50.042;14.432;2023-10-09T11:49:08;13.20;;;6.90;;
78716;SDS011;68045;50.042;14.432;2023-10-09T11:53:22;13.98;;;7.32;;
78716;SDS011;68045;50.042;14.432;2023-10-09T11:57:26;14.52;;;6.90;;
78716;SDS011;68045;50.042;14.432;2023-10-09T12:01:37;16.05;;;8.48;;
78716;SDS011;68045;50.042;14.432;2023-10-09T12:05:43;18.67;;;7.72;;
78716;SDS011;68045;50.042;14.432;2023-10-09T12:09:45;14.55;;;8.00;;
78716;SDS011;68045;50.042;14.432;2023-10-09T12:13:46;12.13;;;6.82;;
78716;SDS011;68045;50.042;14.432;2023-10-09T12:17:46;15.23;;;7.07;;
78716;SDS011;68045;50.042;14.432;2023-10-09T12:21:47;12.93;;;7.50;;
78716;SDS011;68045;50.042;14.432;2023-10-09T12:25:49;11.65;;;7.10;;
78716;SDS011;68045;50.042;14.432;2023-10-09T12:29:50;12.35;;;7.13;;
78716;SDS011;68045;50.042;14.432;2023-10-09T12:33:51;12.05;;;6.78;;
78716;SDS011;68045;50.042;14.432;2023-10-09T12:37:52;13.93;;;7.25;;
78716;SDS011;68045;50.042;14.432;2023-10-09T12:41:55;12.70;;;6.43;;
78716;SDS011;68045;50.042;14.432;2023-10-09T12:45:58;12.30;;;6.70;;
78716;SDS011;68045;50.042;14.432;2023-10-09T12:49:59;12.70;;;6.50;;
78716;SDS011;68045;50.042;14.432;2023-10-09T12:54:00;12.57;;;6.00;;
78716;SDS011;68045;50.042;14.432;2023-10-09T12:58:01;13.98;;;6.30;;
78716;SDS011;68045;50.042;14.432;2023-10-09T13:02:06;13.18;;;6.45;;
78716;SDS011;68045;50.042;14.432;2023-10-09T13:06:11;18.17;;;6.75;;
78716;SDS011;68045;50.042;14.432;2023-10-09T13:10:12;13.98;;;5.82;;
78716;SDS011;68045;50.042;14.432;2023-10-09T13:14:13;13.57;;;6.50;;
78716;SDS011;68045;50.042;14.432;2023-10-09T13:18:17;12.00;;;6.53;;
78716;SDS011;68045;50.042;14.432;2023-10-09T13:22:18;10.32;;;6.95;;
78716;SDS011;68045;50.042;14.432;2023-10-09T13:26:21;11.77;;;6.82;;
78716;SDS011;68045;50.042;14.432;2023-10-09T13:30:24;11.75;;;6.57;;
78716;SDS011;68045;50.042;14.432;2023-10-09T13:34:25;14.23;;;6.97;;
78716;SDS011;68045;50.042;14.432;2023-10-09T13:38:29;12.35;;;6.40;;
78716;SDS011;68045;50.042;14.432;2023-10-09T13:42:30;12.85;;;6.82;;
78716;SDS011;68045;50.042;14.432;2023-10-09T13:46:31;12.70;;;7.22;;
78716;SDS011;68045;50.042;14.432;2023-10-09T13:50:32;13.00;;;6.75;;
78716;SDS011;68045;50.042;14.432;2023-10-09T13:54:33;15.60;;;6.18;;
78716;SDS011;68045;50.042;14.432;2023-10-09T13:58:34;13.90;;;5.90;;
78716;SDS011;68045;50.042;14.432;2023-10-09T14:02:35;10.15;;;5.78;;
78716;SDS011;68045;50.042;14.432;2023-10-09T14:06:36;13.02;;;6.28;;
78716;SDS011;68045;50.042;14.432;2023-10-09T14:10:37;12.15;;;6.78;;
78716;SDS011;68045;50.042;14.432;2023-10-09T14:14:43;15.77;;;6.95;;
78716;SDS011;68045;50.042;14.432;2023-10-09T14:18:47;14.15;;;7.07;;
78716;SDS011;68045;50.042;14.432;2023-10-09T14:22:48;12.32;;;5.78;;
78716;SDS011;68045;50.042;14.432;2023-10-09T14:26:52;13.73;;;7.03;;
78716;SDS011;68045;50.042;14.432;2023-10-09T14:30:57;11.98;;;6.50;;
78716;SDS011;68045;50.042;14.432;2023-10-09T14:35:01;13.27;;;6.72;;
78716;SDS011;68045;50.042;14.432;2023-10-09T14:39:02;12.32;;;6.65;;
78716;SDS011;68045;50.042;14.432;2023-10-09T14:47:05;11.18;;;5.68;;
78716;SDS011;68045;50.042;14.432;2023-10-09T14:51:07;12.82;;;6.80;;
78716;SDS011;68045;50.042;14.432;2023-10-09T14:55:11;11.50;;;6.43;;
78716;SDS011;68045;50.042;14.432;2023-10-09T14:59:12;10.55;;;5.53;;
78716;SDS011;68045;50.042;14.432;2023-10-09T15:03:13;12.32;;;5.40;;
78716;SDS011;68045;50.042;14.432;2023-10-09T15:07:20;11.45;;;5.72;;
78716;SDS011;68045;50.042;14.432;2023-10-09T15:11:22;13.90;;;6.13;;
78716;SDS011;68045;50.042;14.432;2023-10-09T15:15:25;13.68;;;6.07;;
78716;SDS011;68045;50.042;14.432;2023-10-09T15:19:28;8.98;;;4.93;;
78716;SDS011;68045;50.042;14.432;2023-10-09T15:23:32;12.88;;;5.93;;
78716;SDS011;68045;50.042;14.432;2023-10-09T15:27:33;10.55;;;5.82;;
78716;SDS011;68045;50.042;14.432;2023-10-09T15:31:35;11.55;;;5.90;;
78716;SDS011;68045;50.042;14.432;2023-10-09T15:35:37;14.65;;;6.95;;
78716;SDS011;68045;50.042;14.432;2023-10-09T15:39:38;14.13;;;7.38;;
78716;SDS011;68045;50.042;14.432;2023-10-09T15:43:38;13.18;;;6.88;;
78716;SDS011;68045;50.042;14.432;2023-10-09T15:47:40;16.90;;;7.38;;
78716;SDS011;68045;50.042;14.432;2023-10-09T15:51:41;12.38;;;6.72;;
78716;SDS011;68045;50.042;14.432;2023-10-09T15:55:44;11.95;;;6.68;;
78716;SDS011;68045;50.042;14.432;2023-10-09T15:59:45;16.50;;;8.15;;
78716;SDS011;68045;50.042;14.432;2023-10-09T16:03:46;15.90;;;9.10;;
78716;SDS011;68045;50.042;14.432;2023-10-09T16:07:48;12.88;;;7.38;;
78716;SDS011;68045;50.042;14.432;2023-10-09T16:11:49;14.65;;;6.60;;
78716;SDS011;68045;50.042;14.432;2023-10-09T16:15:50;14.98;;;7.70;;
78716;SDS011;68045;50.042;14.432;2023-10-09T16:19:51;12.73;;;7.25;;
78716;SDS011;68045;50.042;14.432;2023-10-09T16:23:52;11.50;;;6.55;;
78716;SDS011;68045;50.042;14.432;2023-10-09T16:28:00;13.23;;;7.72;;
78716;SDS011;68045;50.042;14.432;2023-10-09T16:32:02;17.27;;;7.72;;
78716;SDS011;68045;50.042;14.432;2023-10-09T16:36:03;17.67;;;8.52;;
78716;SDS011;68045;50.042;14.432;2023-10-09T16:40:04;13.68;;;6.43;;
78716;SDS011;68045;50.042;14.432;2023-10-09T16:44:12;18.38;;;8.18;;
78716;SDS011;68045;50.042;14.432;2023-10-09T16:48:16;16.58;;;8.25;;
78716;SDS011;68045;50.042;14.432;2023-10-09T16:52:17;12.18;;;7.20;;
78716;SDS011;68045;50.042;14.432;2023-10-09T16:56:19;19.23;;;7.45;;
78716;SDS011;68045;50.042;14.432;2023-10-09T17:00:20;15.73;;;7.50;;
78716;SDS011;68045;50.042;14.432;2023-10-09T17:04:35;15.38;;;7.60;;
78716;SDS011;68045;50.042;14.432;2023-10-09T17:08:37;17.08;;;7.10;;
78716;SDS011;68045;50.042;14.432;2023-10-09T17:12:42;13.38;;;7.68;;
78716;SDS011;68045;50.042;14.432;2023-10-09T17:16:46;12.57;;;6.30;;
78716;SDS011;68045;50.042;14.432;2023-10-09T17:20:48;11.57;;;6.93;;
78716;SDS011;68045;50.042;14.432;2023-10-09T17:24:51;13.43;;;7.55;;
78716;SDS011;68045;50.042;14.432;2023-10-09T17:28:54;11.57;;;6.78;;
78716;SDS011;68045;50.042;14.432;2023-10-09T17:32:55;13.38;;;7.05;;
78716;SDS011;68045;50.042;14.432;2023-10-09T17:36:58;13.07;;;7.18;;
78716;SDS011;68045;50.042;14.432;2023-10-09T17:40:59;12.57;;;7.38;;
78716;SDS011;68045;50.042;14.432;2023-10-09T17:45:02;15.43;;;7.20;;
78716;SDS011;68045;50.042;14.432;2023-10-09T17:49:07;14.73;;;7.57;;
78716;SDS011;68045;50.042;14.432;2023-10-09T17:53:08;13.82;;;6.75;;
78716;SDS011;68045;50.042;14.432;2023-10-09T17:57:09;14.73;;;7.95;;
78716;SDS011;68045;50.042;14.432;2023-10-09T18:01:10;12.45;;;6.97;;
78716;SDS011;68045;50.042;14.432;2023-10-09T18:05:10;12.85;;;6.63;;
78716;SDS011;68045;50.042;14.432;2023-10-09T18:09:11;12.68;;;6.50;;
78716;SDS011;68045;50.042;14.432;2023-10-09T18:13:15;17.63;;;8.43;;
78716;SDS011;68045;50.042;14.432;2023-10-09T18:17:20;13.98;;;7.55;;
78716;SDS011;68045;50.042;14.432;2023-10-09T18:21:23;15.65;;;7.65;;
78716;SDS011;68045;50.042;14.432;2023-10-09T18:25:25;15.93;;;7.45;;
78716;SDS011;68045;50.042;14.432;2023-10-09T18:29:26;14.70;;;7.55;;
78716;SDS011;68045;50.042;14.432;2023-10-09T18:33:27;15.00;;;7.45;;
78716;SDS011;68045;50.042;14.432;2023-10-09T18:37:28;11.98;;;7.13;;
78716;SDS011;68045;50.042;14.432;2023-10-09T18:41:28;14.98;;;7.30;;
78716;SDS011;68045;50.042;14.432;2023-10-09T18:45:30;12.63;;;6.35;;
78716;SDS011;68045;50.042;14.432;2023-10-09T18:49:34;15.10;;;6.60;;
78716;SDS011;68045;50.042;14.432;2023-10-09T18:53:37;16.08;;;7.05;;
78716;SDS011;68045;50.042;14.432;2023-10-09T18:57:39;13.30;;;6.35;;
78716;SDS011;68045;50.042;14.432;2023-10-09T19:01:49;15.32;;;7.53;;
78716;SDS011;68045;50.042;14.432;2023-10-09T19:05:49;18.20;;;7.28;;
78716;SDS011;68045;50.042;14.432;2023-10-09T19:09:53;13.40;;;7.40;;
78716;SDS011;68045;50.042;14.432;2023-10-09T19:13:55;15.90;;;7.00;;
78716;SDS011;68045;50.042;14.432;2023-10-09T19:17:58;14.25;;;7.88;;
78716;SDS011;68045;50.042;14.432;2023-10-09T19:21:59;13.13;;;6.50;;
78716;SDS011;68045;50.042;14.432;2023-10-09T19:26:00;14.25;;;7.20;;
78716;SDS011;68045;50.042;14.432;2023-10-09T19:30:03;13.52;;;7.20;;
78716;SDS011;68045;50.042;14.432;2023-10-09T19:34:07;13.88;;;7.95;;
78716;SDS011;68045;50.042;14.432;2023-10-09T19:38:09;13.80;;;7.70;;
78716;SDS011;68045;50.042;14.432;2023-10-09T19:42:11;16.23;;;7.65;;
78716;SDS011;68045;50.042;14.432;2023-10-09T19:46:12;14.90;;;6.78;;
78716;SDS011;68045;50.042;14.432;2023-10-09T19:50:14;17.40;;;7.70;;
78716;SDS011;68045;50.042;14.432;2023-10-09T19:54:15;13.80;;;6.50;;
78716;SDS011;68045;50.042;14.432;2023-10-09T19:58:17;12.43;;;7.55;;
78716;SDS011;68045;50.042;14.432;2023-10-09T20:02:18;13.38;;;6.97;;
78716;SDS011;68045;50.042;14.432;2023-10-09T20:06:20;14.52;;;6.82;;
78716;SDS011;68045;50.042;14.432;2023-10-09T20:10:20;15.27;;;7.78;;
78716;SDS011;68045;50.042;14.432;2023-10-09T20:14:22;14.15;;;7.40;;
78716;SDS011;68045;50.042;14.432;2023-10-09T20:18:23;14.65;;;7.53;;
78716;SDS011;68045;50.042;14.432;2023-10-09T20:22:24;12.80;;;6.97;;
78716;SDS011;68045;50.042;14.432;2023-10-09T20:26:24;11.48;;;7.07;;
78716;SDS011;68045;50.042;14.432;2023-10-09T20:30:25;12.73;;;7.65;;
78716;SDS011;68045;50.042;14.432;2023-10-09T20:34:26;12.88;;;7.05;;
78716;SDS011;68045;50.042;14.432;2023-10-09T20:38:27;12.20;;;7.60;;
78716;SDS011;68045;50.042;14.432;2023-10-09T20:42:28;13.55;;;7.82;;
78716;SDS011;68045;50.042;14.432;2023-10-09T20:46:29;11.05;;;7.30;;
78716;SDS011;68045;50.042;14.432;2023-10-09T20:50:30;16.45;;;8.48;;
78716;SDS011;68045;50.042;14.432;2023-10-09T20:54:31;15.10;;;8.18;;
78716;SDS011;68045;50.042;14.432;2023-10-09T20:58:32;14.35;;;7.75;;
78716;SDS011;68045;50.042;14.432;2023-10-09T21:02:33;16.30;;;7.88;;
78716;SDS011;68045;50.042;14.432;2023-10-09T21:06:34;13.98;;;8.27;;
78716;SDS011;68045;50.042;14.432;2023-10-09T21:10:35;12.35;;;8.35;;
78716;SDS011;68045;50.042;14.432;2023-10-09T21:14:45;12.68;;;7.90;;
78716;SDS011;68045;50.042;14.432;2023-10-09T21:18:46;17.38;;;8.05;;
78716;SDS011;68045;50.042;14.432;2023-10-09T21:22:48;13.68;;;8.23;;
78716;SDS011;68045;50.042;14.432;2023-10-09T21:26:55;14.70;;;8.65;;
78716;SDS011;68045;50.042;14.432;2023-10-09T21:30:56;16.60;;;9.35;;
78716;SDS011;68045;50.042;14.432;2023-10-09T21:34:58;14.65;;;9.10;;
78716;SDS011;68045;50.042;14.432;2023-10-09T21:38:59;18.45;;;8.38;;
78716;SDS011;68045;50.042;14.432;2023-10-09T21:43:01;16.17;;;7.85;;
78716;SDS011;68045;50.042;14.432;2023-10-09T21:47:07;13.85;;;8.55;;
78716;SDS011;68045;50.042;14.432;2023-10-09T21:51:08;16.90;;;9.30;;
78716;SDS011;68045;50.042;14.432;2023-10-09T21:55:09;16.92;;;10.40;;
78716;SDS011;68045;50.042;14.432;2023-10-09T22:03:13;14.88;;;8.70;;
78716;SDS011;68045;50.042;14.432;2023-10-09T22:07:13;18.67;;;10.65;;
78716;SDS011;68045;50.042;14.432;2023-10-09T22:11:16;16.77;;;10.18;;
78716;SDS011;68045;50.042;14.432;2023-10-09T22:15:17;20.05;;;9.55;;
78716;SDS011;68045;50.042;14.432;2023-10-09T22:19:19;14.80;;;9.18;;
78716;SDS011;68045;50.042;14.432;2023-10-09T22:23:25;20.80;;;9.63;;
78716;SDS011;68045;50.042;14.432;2023-10-09T22:27:32;18.08;;;9.23;;
78716;SDS011;68045;50.042;14.432;2023-10-09T22:31:35;17.40;;;9.20;;
78716;SDS011;68045;50.042;14.432;2023-10-09T22:35:39;14.65;;;9.15;;
78716;SDS011;68045;50.042;14.432;2023-10-09T22:39:45;20.63;;;8.75;;
78716;SDS011;68045;50.042;14.432;2023-10-09T22:43:46;13.70;;;8.98;;
78716;SDS011;68045;50.042;14.432;2023-10-09T22:47:47;16.80;;;8.70;;
78716;SDS011;68045;50.042;14.432;2023-10-09T22:51:51;23.23;;;8.27;;
78716;SDS011;68045;50.042;14.432;2023-10-09T22:55:52;13.55;;;7.90;;
78716;SDS011;68045;50.042;14.432;2023-10-09T22:59:53;17.02;;;9.52;;
78716;SDS011;68045;50.042;14.432;2023-10-09T23:04:00;16.27;;;8.68;;
78716;SDS011;68045;50.042;14.432;2023-10-09T23:08:11;19.65;;;10.00;;
78716;SDS011;68045;50.042;14.432;2023-10-09T23:12:18;17.98;;;9.50;;
78716;SDS011;68045;50.042;14.432;2023-10-09T23:16:23;24.00;;;10.73;;
78716;SDS011;68045;50.042;14.432;2023-10-09T23:20:36;16.23;;;8.85;;
78716;SDS011;68045;50.042;14.432;2023-10-09T23:24:48;16.15;;;9.50;;
78716;SDS011;68045;50.042;14.432;2023-10-09T23:28:54;20.63;;;9.60;;
78716;SDS011;68045;50.042;14.432;2023-10-09T23:32:56;20.45;;;9.75;;
78716;SDS011;68045;50.042;14.432;2023-10-09T23:37:21;17.63;;;9.68;;
78716;SDS011;68045;50.042;14.432;2023-10-09T23:41:41;19.52;;;9.52;;
78716;SDS011;68045;50.042;14.432;2023-10-09T23:46:02;17.52;;;8.63;;
78716;SDS011;68045;50.042;14.432;2023-10-09T23:50:08;15.13;;;8.50;;
78716;SDS011;68045;50.042;14.432;2023-10-09T23:54:16;14.30;;;8.40;;
78716;SDS011;68045;50.042;14.432;2023-10-09T23:58:17;13.65;;;8.00;;
